sensor_id;sensor_type;location;lat;lon;timestamp;temperature;humidity
54202;DHT22;40108;53.152;5.844;2022-08-25T00:01:53;20.60;88.60
54202;DHT22;40108;53.152;5.844;2022-08-25T00:04:19;20.60;88.70
54202;DHT22;40108;53.152;5.844;2022-08-25T00:06:46;20.60;88.60
54202;DHT22;40108;53.152;5.844;2022-08-25T00:09:16;20.60;88.50
54202;DHT22;40108;53.152;5.844;2022-08-25T00:11:42;20.50;88.60
54202;DHT22;40108;53.152;5.844;2022-08-25T00:14:12;20.50;88.60
54202;DHT22;40108;53.152;5.844;2022-08-25T00:16:38;20.50;88.50
54202;DHT22;40108;53.152;5.844;2022-08-25T00:19:08;20.50;88.40
54202;DHT22;40108;53.152;5.844;2022-08-25T00:21:34;20.50;88.40
54202;DHT22;40108;53.152;5.844;2022-08-25T00:24:01;20.50;88.50
54202;DHT22;40108;53.152;5.844;2022-08-25T00:26:28;20.40;88.50
54202;DHT22;40108;53.152;5.844;2022-08-25T00:28:54;20.40;88.50
54202;DHT22;40108;53.152;5.844;2022-08-25T00:31:20;20.40;88.30
54202;DHT22;40108;53.152;5.844;2022-08-25T00:33:48;20.40;88.50
54202;DHT22;40108;53.152;5.844;2022-08-25T00:36:15;20.40;88.70
54202;DHT22;40108;53.152;5.844;2022-08-25T00:38:43;20.30;88.70
54202;DHT22;40108;53.152;5.844;2022-08-25T00:41:11;20.30;88.70
54202;DHT22;40108;53.152;5.844;2022-08-25T00:46:08;20.20;88.60
54202;DHT22;40108;53.152;5.844;2022-08-25T00:48:34;20.20;88.60
54202;DHT22;40108;53.152;5.844;2022-08-25T00:51:01;20.20;88.60
54202;DHT22;40108;53.152;5.844;2022-08-25T00:53:29;20.20;88.50
54202;DHT22;40108;53.152;5.844;2022-08-25T00:55:57;20.10;88.40
54202;DHT22;40108;53.152;5.844;2022-08-25T00:58:26;20.10;88.20
54202;DHT22;40108;53.152;5.844;2022-08-25T01:00:54;20.20;87.80
54202;DHT22;40108;53.152;5.844;2022-08-25T01:03:25;20.10;87.40
54202;DHT22;40108;53.152;5.844;2022-08-25T01:05:53;20.20;87.10
54202;DHT22;40108;53.152;5.844;2022-08-25T01:08:21;20.20;86.70
54202;DHT22;40108;53.152;5.844;2022-08-25T01:10:49;20.20;86.60
54202;DHT22;40108;53.152;5.844;2022-08-25T01:13:21;20.20;86.30
54202;DHT22;40108;53.152;5.844;2022-08-25T01:15:53;20.20;85.90
54202;DHT22;40108;53.152;5.844;2022-08-25T01:18:19;20.20;85.30
54202;DHT22;40108;53.152;5.844;2022-08-25T01:20:55;20.20;85.10
54202;DHT22;40108;53.152;5.844;2022-08-25T01:23:22;20.20;85.20
54202;DHT22;40108;53.152;5.844;2022-08-25T01:26:03;20.20;84.90
54202;DHT22;40108;53.152;5.844;2022-08-25T01:28:30;20.10;84.50
54202;DHT22;40108;53.152;5.844;2022-08-25T01:30:56;20.10;84.60
54202;DHT22;40108;53.152;5.844;2022-08-25T01:33:22;20.10;84.50
54202;DHT22;40108;53.152;5.844;2022-08-25T01:35:47;20.10;84.50
54202;DHT22;40108;53.152;5.844;2022-08-25T01:38:14;20.10;84.20
54202;DHT22;40108;53.152;5.844;2022-08-25T01:40:40;20.10;84.20
54202;DHT22;40108;53.152;5.844;2022-08-25T01:45:41;20.00;84.20
54202;DHT22;40108;53.152;5.844;2022-08-25T01:48:07;20.00;84.20
54202;DHT22;40108;53.152;5.844;2022-08-25T01:50:34;20.00;84.10
54202;DHT22;40108;53.152;5.844;2022-08-25T01:53:03;19.90;83.90
54202;DHT22;40108;53.152;5.844;2022-08-25T01:55:31;19.90;83.80
54202;DHT22;40108;53.152;5.844;2022-08-25T01:58:38;19.90;83.80
54202;DHT22;40108;53.152;5.844;2022-08-25T02:01:07;19.80;83.50
54202;DHT22;40108;53.152;5.844;2022-08-25T02:03:39;19.80;83.20
54202;DHT22;40108;53.152;5.844;2022-08-25T02:06:05;19.80;82.70
54202;DHT22;40108;53.152;5.844;2022-08-25T02:08:32;19.80;82.60
54202;DHT22;40108;53.152;5.844;2022-08-25T02:10:58;19.80;82.60
54202;DHT22;40108;53.152;5.844;2022-08-25T02:13:24;19.80;82.50
54202;DHT22;40108;53.152;5.844;2022-08-25T02:15:51;19.70;82.40
54202;DHT22;40108;53.152;5.844;2022-08-25T02:18:19;19.70;82.00
54202;DHT22;40108;53.152;5.844;2022-08-25T02:20:45;19.70;81.60
54202;DHT22;40108;53.152;5.844;2022-08-25T02:23:11;19.70;81.20
54202;DHT22;40108;53.152;5.844;2022-08-25T02:25:38;19.70;80.80
54202;DHT22;40108;53.152;5.844;2022-08-25T02:28:05;19.70;80.90
54202;DHT22;40108;53.152;5.844;2022-08-25T02:30:31;19.70;80.40
54202;DHT22;40108;53.152;5.844;2022-08-25T02:32:57;19.70;80.30
54202;DHT22;40108;53.152;5.844;2022-08-25T02:35:23;19.70;80.30
54202;DHT22;40108;53.152;5.844;2022-08-25T02:37:52;19.70;79.80
54202;DHT22;40108;53.152;5.844;2022-08-25T02:40:18;19.70;79.80
54202;DHT22;40108;53.152;5.844;2022-08-25T02:42:46;19.70;79.90
54202;DHT22;40108;53.152;5.844;2022-08-25T02:45:12;19.70;79.50
54202;DHT22;40108;53.152;5.844;2022-08-25T02:47:39;19.70;79.50
54202;DHT22;40108;53.152;5.844;2022-08-25T02:50:06;19.60;79.40
54202;DHT22;40108;53.152;5.844;2022-08-25T02:52:32;19.60;79.20
54202;DHT22;40108;53.152;5.844;2022-08-25T02:55:02;19.60;79.00
54202;DHT22;40108;53.152;5.844;2022-08-25T02:57:30;19.60;79.00
54202;DHT22;40108;53.152;5.844;2022-08-25T02:59:56;19.60;79.00
54202;DHT22;40108;53.152;5.844;2022-08-25T03:02:22;19.60;79.00
54202;DHT22;40108;53.152;5.844;2022-08-25T03:04:49;19.60;78.80
54202;DHT22;40108;53.152;5.844;2022-08-25T03:07:16;19.60;78.90
54202;DHT22;40108;53.152;5.844;2022-08-25T03:09:43;19.60;78.70
54202;DHT22;40108;53.152;5.844;2022-08-25T03:12:09;19.60;78.50
54202;DHT22;40108;53.152;5.844;2022-08-25T03:14:37;19.60;78.70
54202;DHT22;40108;53.152;5.844;2022-08-25T03:17:04;19.60;78.60
54202;DHT22;40108;53.152;5.844;2022-08-25T03:19:30;19.60;78.20
54202;DHT22;40108;53.152;5.844;2022-08-25T03:21:56;19.60;78.10
54202;DHT22;40108;53.152;5.844;2022-08-25T03:24:25;19.60;78.00
54202;DHT22;40108;53.152;5.844;2022-08-25T03:26:52;19.60;77.90
54202;DHT22;40108;53.152;5.844;2022-08-25T03:29:18;19.50;77.80
54202;DHT22;40108;53.152;5.844;2022-08-25T03:31:44;19.50;77.60
54202;DHT22;40108;53.152;5.844;2022-08-25T03:34:11;19.40;77.60
54202;DHT22;40108;53.152;5.844;2022-08-25T03:36:37;19.40;77.70
54202;DHT22;40108;53.152;5.844;2022-08-25T03:39:04;19.40;77.50
54202;DHT22;40108;53.152;5.844;2022-08-25T03:41:31;19.30;77.70
54202;DHT22;40108;53.152;5.844;2022-08-25T03:43:58;19.30;77.40
54202;DHT22;40108;53.152;5.844;2022-08-25T03:46:40;19.30;77.50
54202;DHT22;40108;53.152;5.844;2022-08-25T03:49:06;19.30;77.10
54202;DHT22;40108;53.152;5.844;2022-08-25T03:51:36;19.20;77.20
54202;DHT22;40108;53.152;5.844;2022-08-25T03:54:05;19.20;77.30
54202;DHT22;40108;53.152;5.844;2022-08-25T03:56:31;19.20;77.10
54202;DHT22;40108;53.152;5.844;2022-08-25T03:58:57;19.20;77.10
54202;DHT22;40108;53.152;5.844;2022-08-25T04:01:23;19.20;76.90
54202;DHT22;40108;53.152;5.844;2022-08-25T04:03:49;19.10;77.00
54202;DHT22;40108;53.152;5.844;2022-08-25T04:06:16;19.20;77.00
54202;DHT22;40108;53.152;5.844;2022-08-25T04:08:42;19.10;76.80
54202;DHT22;40108;53.152;5.844;2022-08-25T04:11:11;19.10;77.00
54202;DHT22;40108;53.152;5.844;2022-08-25T04:13:37;19.10;76.70
54202;DHT22;40108;53.152;5.844;2022-08-25T04:16:09;19.10;76.40
54202;DHT22;40108;53.152;5.844;2022-08-25T04:18:37;19.10;76.70
54202;DHT22;40108;53.152;5.844;2022-08-25T04:21:05;19.10;76.60
54202;DHT22;40108;53.152;5.844;2022-08-25T04:23:31;19.10;76.20
54202;DHT22;40108;53.152;5.844;2022-08-25T04:25:57;19.10;76.60
54202;DHT22;40108;53.152;5.844;2022-08-25T04:28:22;19.10;76.80
54202;DHT22;40108;53.152;5.844;2022-08-25T04:30:48;19.10;76.80
54202;DHT22;40108;53.152;5.844;2022-08-25T04:33:17;19.20;76.70
54202;DHT22;40108;53.152;5.844;2022-08-25T04:35:47;19.20;75.90
54202;DHT22;40108;53.152;5.844;2022-08-25T04:38:13;19.30;76.00
54202;DHT22;40108;53.152;5.844;2022-08-25T04:40:39;19.30;75.80
54202;DHT22;40108;53.152;5.844;2022-08-25T04:43:05;19.40;75.80
54202;DHT22;40108;53.152;5.844;2022-08-25T04:45:36;19.40;75.90
54202;DHT22;40108;53.152;5.844;2022-08-25T04:48:02;19.40;75.90
54202;DHT22;40108;53.152;5.844;2022-08-25T04:50:28;19.50;75.80
54202;DHT22;40108;53.152;5.844;2022-08-25T04:52:54;19.50;75.60
54202;DHT22;40108;53.152;5.844;2022-08-25T04:55:19;19.50;75.70
54202;DHT22;40108;53.152;5.844;2022-08-25T04:57:45;19.50;75.80
54202;DHT22;40108;53.152;5.844;2022-08-25T05:00:11;19.50;75.70
54202;DHT22;40108;53.152;5.844;2022-08-25T05:02:37;19.50;75.70
54202;DHT22;40108;53.152;5.844;2022-08-25T05:05:03;19.40;76.10
54202;DHT22;40108;53.152;5.844;2022-08-25T05:07:29;19.50;75.90
54202;DHT22;40108;53.152;5.844;2022-08-25T05:09:54;19.40;75.80
54202;DHT22;40108;53.152;5.844;2022-08-25T05:12:20;19.50;75.50
54202;DHT22;40108;53.152;5.844;2022-08-25T05:14:46;19.50;75.70
54202;DHT22;40108;53.152;5.844;2022-08-25T05:17:12;19.50;75.50
54202;DHT22;40108;53.152;5.844;2022-08-25T05:19:38;19.50;75.60
54202;DHT22;40108;53.152;5.844;2022-08-25T05:22:04;19.50;75.50
54202;DHT22;40108;53.152;5.844;2022-08-25T05:24:31;19.50;75.50
54202;DHT22;40108;53.152;5.844;2022-08-25T05:26:56;19.50;75.70
54202;DHT22;40108;53.152;5.844;2022-08-25T05:29:22;19.50;75.50
54202;DHT22;40108;53.152;5.844;2022-08-25T05:31:48;19.50;75.80
54202;DHT22;40108;53.152;5.844;2022-08-25T05:34:14;19.60;76.00
54202;DHT22;40108;53.152;5.844;2022-08-25T05:36:41;19.60;75.90
54202;DHT22;40108;53.152;5.844;2022-08-25T05:39:07;19.60;75.60
54202;DHT22;40108;53.152;5.844;2022-08-25T05:41:33;19.60;75.30
54202;DHT22;40108;53.152;5.844;2022-08-25T05:43:59;19.70;75.50
54202;DHT22;40108;53.152;5.844;2022-08-25T05:46:25;19.70;75.40
54202;DHT22;40108;53.152;5.844;2022-08-25T05:48:51;19.80;75.60
54202;DHT22;40108;53.152;5.844;2022-08-25T05:51:18;19.90;75.40
54202;DHT22;40108;53.152;5.844;2022-08-25T05:53:46;19.90;75.20
54202;DHT22;40108;53.152;5.844;2022-08-25T05:56:12;20.00;74.00
54202;DHT22;40108;53.152;5.844;2022-08-25T05:58:39;20.10;74.10
54202;DHT22;40108;53.152;5.844;2022-08-25T06:01:05;20.20;72.70
54202;DHT22;40108;53.152;5.844;2022-08-25T06:03:50;20.30;72.00
54202;DHT22;40108;53.152;5.844;2022-08-25T06:06:20;20.40;71.90
54202;DHT22;40108;53.152;5.844;2022-08-25T06:08:46;20.50;72.50
54202;DHT22;40108;53.152;5.844;2022-08-25T06:11:13;20.60;71.50
54202;DHT22;40108;53.152;5.844;2022-08-25T06:13:40;20.60;71.80
54202;DHT22;40108;53.152;5.844;2022-08-25T06:16:06;20.70;71.40
54202;DHT22;40108;53.152;5.844;2022-08-25T06:18:32;20.80;70.80
54202;DHT22;40108;53.152;5.844;2022-08-25T06:20:58;20.90;70.90
54202;DHT22;40108;53.152;5.844;2022-08-25T06:23:23;21.00;70.80
54202;DHT22;40108;53.152;5.844;2022-08-25T06:25:53;21.10;70.40
54202;DHT22;40108;53.152;5.844;2022-08-25T06:28:19;21.10;70.40
54202;DHT22;40108;53.152;5.844;2022-08-25T06:30:46;21.10;70.00
54202;DHT22;40108;53.152;5.844;2022-08-25T06:33:12;21.20;70.30
54202;DHT22;40108;53.152;5.844;2022-08-25T06:35:43;21.30;70.30
54202;DHT22;40108;53.152;5.844;2022-08-25T06:38:09;21.40;69.70
54202;DHT22;40108;53.152;5.844;2022-08-25T06:40:36;21.60;69.00
54202;DHT22;40108;53.152;5.844;2022-08-25T06:43:01;21.60;69.30
54202;DHT22;40108;53.152;5.844;2022-08-25T06:45:31;21.60;68.40
54202;DHT22;40108;53.152;5.844;2022-08-25T06:47:57;21.80;69.20
54202;DHT22;40108;53.152;5.844;2022-08-25T06:50:23;21.90;68.80
54202;DHT22;40108;53.152;5.844;2022-08-25T06:52:49;21.90;68.70
54202;DHT22;40108;53.152;5.844;2022-08-25T06:55:16;22.00;68.50
54202;DHT22;40108;53.152;5.844;2022-08-25T06:57:41;22.10;68.20
54202;DHT22;40108;53.152;5.844;2022-08-25T07:00:08;22.20;67.60
54202;DHT22;40108;53.152;5.844;2022-08-25T07:02:35;22.30;68.10
54202;DHT22;40108;53.152;5.844;2022-08-25T07:05:03;22.40;68.00
54202;DHT22;40108;53.152;5.844;2022-08-25T07:07:29;22.50;68.50
54202;DHT22;40108;53.152;5.844;2022-08-25T07:09:55;22.60;67.10
54202;DHT22;40108;53.152;5.844;2022-08-25T07:12:21;22.90;66.20
54202;DHT22;40108;53.152;5.844;2022-08-25T07:14:48;23.20;65.80
54202;DHT22;40108;53.152;5.844;2022-08-25T07:17:14;23.50;63.70
54202;DHT22;40108;53.152;5.844;2022-08-25T07:19:41;23.80;63.30
54202;DHT22;40108;53.152;5.844;2022-08-25T07:22:07;24.10;63.40
54202;DHT22;40108;53.152;5.844;2022-08-25T07:24:32;24.30;61.80
54202;DHT22;40108;53.152;5.844;2022-08-25T07:26:58;24.50;61.10
54202;DHT22;40108;53.152;5.844;2022-08-25T07:29:26;24.70;60.30
54202;DHT22;40108;53.152;5.844;2022-08-25T07:31:53;24.70;59.50
54202;DHT22;40108;53.152;5.844;2022-08-25T07:34:19;24.90;60.60
54202;DHT22;40108;53.152;5.844;2022-08-25T07:37:04;25.10;59.40
54202;DHT22;40108;53.152;5.844;2022-08-25T07:39:31;25.30;59.50
54202;DHT22;40108;53.152;5.844;2022-08-25T07:41:58;25.40;58.20
54202;DHT22;40108;53.152;5.844;2022-08-25T07:44:27;25.50;57.40
54202;DHT22;40108;53.152;5.844;2022-08-25T07:46:53;25.70;58.20
54202;DHT22;40108;53.152;5.844;2022-08-25T07:49:20;26.00;58.20
54202;DHT22;40108;53.152;5.844;2022-08-25T07:51:46;26.20;56.20
54202;DHT22;40108;53.152;5.844;2022-08-25T07:54:12;26.30;56.30
54202;DHT22;40108;53.152;5.844;2022-08-25T07:56:37;26.60;56.40
54202;DHT22;40108;53.152;5.844;2022-08-25T07:59:06;26.80;55.60
54202;DHT22;40108;53.152;5.844;2022-08-25T08:01:32;27.10;55.80
54202;DHT22;40108;53.152;5.844;2022-08-25T08:03:58;27.30;53.50
54202;DHT22;40108;53.152;5.844;2022-08-25T08:06:24;27.40;54.60
54202;DHT22;40108;53.152;5.844;2022-08-25T08:08:51;27.50;53.90
54202;DHT22;40108;53.152;5.844;2022-08-25T08:11:26;27.70;53.80
54202;DHT22;40108;53.152;5.844;2022-08-25T08:13:54;27.50;52.40
54202;DHT22;40108;53.152;5.844;2022-08-25T08:16:22;27.40;53.40
54202;DHT22;40108;53.152;5.844;2022-08-25T08:18:49;27.50;54.00
54202;DHT22;40108;53.152;5.844;2022-08-25T08:21:26;27.50;52.40
54202;DHT22;40108;53.152;5.844;2022-08-25T08:23:53;27.60;52.80
54202;DHT22;40108;53.152;5.844;2022-08-25T08:26:19;27.80;51.70
54202;DHT22;40108;53.152;5.844;2022-08-25T08:28:45;28.00;52.10
54202;DHT22;40108;53.152;5.844;2022-08-25T08:31:12;28.40;52.80
54202;DHT22;40108;53.152;5.844;2022-08-25T08:33:38;28.60;50.30
54202;DHT22;40108;53.152;5.844;2022-08-25T08:36:07;28.90;51.40
54202;DHT22;40108;53.152;5.844;2022-08-25T08:38:34;29.00;50.20
54202;DHT22;40108;53.152;5.844;2022-08-25T08:41:16;29.20;49.60
54202;DHT22;40108;53.152;5.844;2022-08-25T08:44:19;29.20;49.70
54202;DHT22;40108;53.152;5.844;2022-08-25T08:55:30;29.80;46.50
54202;DHT22;40108;53.152;5.844;2022-08-25T08:57:58;30.00;47.00
54202;DHT22;40108;53.152;5.844;2022-08-25T09:00:26;29.90;47.50
54202;DHT22;40108;53.152;5.844;2022-08-25T09:03:06;30.00;46.40
54202;DHT22;40108;53.152;5.844;2022-08-25T09:05:42;30.00;46.80
54202;DHT22;40108;53.152;5.844;2022-08-25T09:08:11;30.00;46.30
54202;DHT22;40108;53.152;5.844;2022-08-25T09:10:56;29.90;45.60
54202;DHT22;40108;53.152;5.844;2022-08-25T09:16:14;30.00;45.30
54202;DHT22;40108;53.152;5.844;2022-08-25T09:25:51;30.40;45.90
54202;DHT22;40108;53.152;5.844;2022-08-25T09:30:44;30.50;45.90
54202;DHT22;40108;53.152;5.844;2022-08-25T09:33:19;30.40;43.40
54202;DHT22;40108;53.152;5.844;2022-08-25T09:35:46;30.70;43.80
54202;DHT22;40108;53.152;5.844;2022-08-25T09:38:12;30.70;42.00
54202;DHT22;40108;53.152;5.844;2022-08-25T09:40:42;30.70;42.00
54202;DHT22;40108;53.152;5.844;2022-08-25T09:43:29;30.70;41.60
54202;DHT22;40108;53.152;5.844;2022-08-25T09:46:12;30.50;41.10
54202;DHT22;40108;53.152;5.844;2022-08-25T09:48:52;30.50;40.40
54202;DHT22;40108;53.152;5.844;2022-08-25T09:51:27;30.70;40.80
54202;DHT22;40108;53.152;5.844;2022-08-25T09:53:59;31.00;39.10
54202;DHT22;40108;53.152;5.844;2022-08-25T09:56:29;31.00;39.90
54202;DHT22;40108;53.152;5.844;2022-08-25T10:01:57;31.20;38.40
54202;DHT22;40108;53.152;5.844;2022-08-25T10:04:38;31.10;37.90
54202;DHT22;40108;53.152;5.844;2022-08-25T10:07:21;31.00;38.40
54202;DHT22;40108;53.152;5.844;2022-08-25T10:10:01;31.00;37.60
54202;DHT22;40108;53.152;5.844;2022-08-25T10:12:39;31.10;38.10
54202;DHT22;40108;53.152;5.844;2022-08-25T10:15:30;31.10;38.50
54202;DHT22;40108;53.152;5.844;2022-08-25T10:21:00;31.00;37.40
54202;DHT22;40108;53.152;5.844;2022-08-25T10:23:27;30.90;37.90
54202;DHT22;40108;53.152;5.844;2022-08-25T10:25:54;30.80;37.70
54202;DHT22;40108;53.152;5.844;2022-08-25T10:29:12;31.00;37.50
54202;DHT22;40108;53.152;5.844;2022-08-25T10:31:23;31.10;36.40
54202;DHT22;40108;53.152;5.844;2022-08-25T10:34:18;31.40;36.80
54202;DHT22;40108;53.152;5.844;2022-08-25T10:39:43;31.60;36.20
54202;DHT22;40108;53.152;5.844;2022-08-25T10:45:27;31.50;36.60
54202;DHT22;40108;53.152;5.844;2022-08-25T10:48:30;31.50;36.90
54202;DHT22;40108;53.152;5.844;2022-08-25T10:56:30;31.60;36.00
54202;DHT22;40108;53.152;5.844;2022-08-25T11:04:22;31.70;35.40
54202;DHT22;40108;53.152;5.844;2022-08-25T11:07:01;31.70;35.60
54202;DHT22;40108;53.152;5.844;2022-08-25T11:09:33;31.60;35.20
54202;DHT22;40108;53.152;5.844;2022-08-25T11:14:58;31.60;36.60
54202;DHT22;40108;53.152;5.844;2022-08-25T11:17:28;31.70;36.40
54202;DHT22;40108;53.152;5.844;2022-08-25T11:20:03;31.70;35.80
54202;DHT22;40108;53.152;5.844;2022-08-25T11:22:42;31.40;36.30
54202;DHT22;40108;53.152;5.844;2022-08-25T11:25:30;31.40;36.20
54202;DHT22;40108;53.152;5.844;2022-08-25T11:28:11;31.40;36.30
54202;DHT22;40108;53.152;5.844;2022-08-25T11:30:39;31.40;36.00
54202;DHT22;40108;53.152;5.844;2022-08-25T11:33:06;31.50;36.40
54202;DHT22;40108;53.152;5.844;2022-08-25T11:35:39;31.50;35.30
54202;DHT22;40108;53.152;5.844;2022-08-25T11:44:18;31.60;36.70
54202;DHT22;40108;53.152;5.844;2022-08-25T11:50:02;32.00;36.70
54202;DHT22;40108;53.152;5.844;2022-08-25T11:55:10;32.10;34.00
54202;DHT22;40108;53.152;5.844;2022-08-25T11:57:36;32.40;34.70
54202;DHT22;40108;53.152;5.844;2022-08-25T12:00:14;32.20;34.50
54202;DHT22;40108;53.152;5.844;2022-08-25T12:05:11;32.00;34.70
54202;DHT22;40108;53.152;5.844;2022-08-25T12:10:19;32.00;35.30
54202;DHT22;40108;53.152;5.844;2022-08-25T12:18:43;32.30;34.80
54202;DHT22;40108;53.152;5.844;2022-08-25T12:23:37;32.20;33.60
54202;DHT22;40108;53.152;5.844;2022-08-25T12:26:34;32.30;34.20
54202;DHT22;40108;53.152;5.844;2022-08-25T12:31:53;32.10;34.40
54202;DHT22;40108;53.152;5.844;2022-08-25T12:37:03;32.00;34.20
54202;DHT22;40108;53.152;5.844;2022-08-25T12:39:32;32.00;34.90
54202;DHT22;40108;53.152;5.844;2022-08-25T12:42:05;31.90;33.40
54202;DHT22;40108;53.152;5.844;2022-08-25T12:49:45;31.90;34.30
54202;DHT22;40108;53.152;5.844;2022-08-25T12:52:16;31.80;34.70
54202;DHT22;40108;53.152;5.844;2022-08-25T12:54:56;31.90;34.70
54202;DHT22;40108;53.152;5.844;2022-08-25T12:57:44;31.70;33.80
54202;DHT22;40108;53.152;5.844;2022-08-25T13:00:21;31.60;35.00
54202;DHT22;40108;53.152;5.844;2022-08-25T13:10:50;31.60;35.20
54202;DHT22;40108;53.152;5.844;2022-08-25T13:16:28;31.50;34.50
54202;DHT22;40108;53.152;5.844;2022-08-25T13:18:55;31.50;35.10
54202;DHT22;40108;53.152;5.844;2022-08-25T13:24:03;31.50;35.90
54202;DHT22;40108;53.152;5.844;2022-08-25T13:26:32;31.50;35.10
54202;DHT22;40108;53.152;5.844;2022-08-25T13:29:03;31.40;35.10
54202;DHT22;40108;53.152;5.844;2022-08-25T13:31:37;31.40;35.00
54202;DHT22;40108;53.152;5.844;2022-08-25T13:34:20;31.50;35.20
54202;DHT22;40108;53.152;5.844;2022-08-25T13:36:47;31.50;35.40
54202;DHT22;40108;53.152;5.844;2022-08-25T13:39:33;31.50;34.60
54202;DHT22;40108;53.152;5.844;2022-08-25T13:42:01;31.50;35.60
54202;DHT22;40108;53.152;5.844;2022-08-25T13:44:30;31.50;34.80
54202;DHT22;40108;53.152;5.844;2022-08-25T13:47:16;31.50;35.00
54202;DHT22;40108;53.152;5.844;2022-08-25T13:53:00;31.50;35.00
54202;DHT22;40108;53.152;5.844;2022-08-25T13:55:33;31.30;34.90
54202;DHT22;40108;53.152;5.844;2022-08-25T13:58:00;31.30;34.90
54202;DHT22;40108;53.152;5.844;2022-08-25T14:00:40;31.20;35.00
54202;DHT22;40108;53.152;5.844;2022-08-25T14:03:32;31.10;35.20
54202;DHT22;40108;53.152;5.844;2022-08-25T14:11:30;31.00;35.10
54202;DHT22;40108;53.152;5.844;2022-08-25T14:14:01;31.00;35.80
54202;DHT22;40108;53.152;5.844;2022-08-25T14:16:30;31.10;34.80
54202;DHT22;40108;53.152;5.844;2022-08-25T14:18:57;31.00;34.90
54202;DHT22;40108;53.152;5.844;2022-08-25T14:21:29;31.10;35.00
54202;DHT22;40108;53.152;5.844;2022-08-25T14:23:56;31.20;33.70
54202;DHT22;40108;53.152;5.844;2022-08-25T14:26:23;31.20;34.30
54202;DHT22;40108;53.152;5.844;2022-08-25T14:28:49;31.20;33.80
54202;DHT22;40108;53.152;5.844;2022-08-25T14:31:25;31.10;34.90
54202;DHT22;40108;53.152;5.844;2022-08-25T14:33:57;31.20;34.40
54202;DHT22;40108;53.152;5.844;2022-08-25T14:36:23;31.20;34.00
54202;DHT22;40108;53.152;5.844;2022-08-25T14:38:49;31.10;32.80
54202;DHT22;40108;53.152;5.844;2022-08-25T14:41:15;31.10;33.90
54202;DHT22;40108;53.152;5.844;2022-08-25T14:43:41;31.10;33.20
54202;DHT22;40108;53.152;5.844;2022-08-25T14:46:17;31.00;33.40
54202;DHT22;40108;53.152;5.844;2022-08-25T14:48:45;31.00;33.50
54202;DHT22;40108;53.152;5.844;2022-08-25T14:51:13;31.00;33.00
54202;DHT22;40108;53.152;5.844;2022-08-25T14:53:40;31.00;32.60
54202;DHT22;40108;53.152;5.844;2022-08-25T14:56:07;31.00;33.30
54202;DHT22;40108;53.152;5.844;2022-08-25T14:58:34;31.00;32.20
54202;DHT22;40108;53.152;5.844;2022-08-25T15:01:00;31.00;32.60
54202;DHT22;40108;53.152;5.844;2022-08-25T15:03:31;31.00;31.70
54202;DHT22;40108;53.152;5.844;2022-08-25T15:05:59;30.90;32.30
54202;DHT22;40108;53.152;5.844;2022-08-25T15:08:25;30.90;33.50
54202;DHT22;40108;53.152;5.844;2022-08-25T15:11:09;30.90;32.00
54202;DHT22;40108;53.152;5.844;2022-08-25T15:13:35;30.90;33.00
54202;DHT22;40108;53.152;5.844;2022-08-25T15:16:02;30.90;32.70
54202;DHT22;40108;53.152;5.844;2022-08-25T15:18:27;30.90;33.10
54202;DHT22;40108;53.152;5.844;2022-08-25T15:20:54;30.90;32.60
54202;DHT22;40108;53.152;5.844;2022-08-25T15:23:19;30.80;33.40
54202;DHT22;40108;53.152;5.844;2022-08-25T15:25:47;30.90;34.00
54202;DHT22;40108;53.152;5.844;2022-08-25T15:28:14;30.80;35.10
54202;DHT22;40108;53.152;5.844;2022-08-25T15:30:41;30.90;34.10
54202;DHT22;40108;53.152;5.844;2022-08-25T15:33:07;30.90;33.80
54202;DHT22;40108;53.152;5.844;2022-08-25T15:35:33;30.80;33.50
54202;DHT22;40108;53.152;5.844;2022-08-25T15:38:00;30.80;34.00
54202;DHT22;40108;53.152;5.844;2022-08-25T15:40:27;30.80;34.00
54202;DHT22;40108;53.152;5.844;2022-08-25T15:42:53;30.70;33.70
54202;DHT22;40108;53.152;5.844;2022-08-25T15:45:19;30.60;33.80
54202;DHT22;40108;53.152;5.844;2022-08-25T15:47:44;30.70;34.70
54202;DHT22;40108;53.152;5.844;2022-08-25T15:50:14;30.60;34.90
54202;DHT22;40108;53.152;5.844;2022-08-25T15:52:41;30.70;34.00
54202;DHT22;40108;53.152;5.844;2022-08-25T15:55:08;30.60;34.30
54202;DHT22;40108;53.152;5.844;2022-08-25T15:57:34;30.60;34.60
54202;DHT22;40108;53.152;5.844;2022-08-25T16:00:02;30.70;34.80
54202;DHT22;40108;53.152;5.844;2022-08-25T16:02:28;30.60;35.40
54202;DHT22;40108;53.152;5.844;2022-08-25T16:04:54;30.60;34.20
54202;DHT22;40108;53.152;5.844;2022-08-25T16:07:20;30.60;34.40
54202;DHT22;40108;53.152;5.844;2022-08-25T16:09:46;30.60;34.60
54202;DHT22;40108;53.152;5.844;2022-08-25T16:12:12;30.50;35.10
54202;DHT22;40108;53.152;5.844;2022-08-25T16:14:37;30.50;34.60
54202;DHT22;40108;53.152;5.844;2022-08-25T16:17:04;30.50;35.40
54202;DHT22;40108;53.152;5.844;2022-08-25T16:19:30;30.40;35.80
54202;DHT22;40108;53.152;5.844;2022-08-25T16:21:57;30.40;35.90
54202;DHT22;40108;53.152;5.844;2022-08-25T16:24:23;30.40;36.70
54202;DHT22;40108;53.152;5.844;2022-08-25T16:26:50;30.50;36.10
54202;DHT22;40108;53.152;5.844;2022-08-25T16:29:16;30.40;36.00
54202;DHT22;40108;53.152;5.844;2022-08-25T16:31:42;30.40;35.00
54202;DHT22;40108;53.152;5.844;2022-08-25T16:34:08;30.40;34.60
54202;DHT22;40108;53.152;5.844;2022-08-25T16:36:35;30.40;35.30
54202;DHT22;40108;53.152;5.844;2022-08-25T16:39:01;30.40;35.40
54202;DHT22;40108;53.152;5.844;2022-08-25T16:41:29;30.30;35.50
54202;DHT22;40108;53.152;5.844;2022-08-25T16:44:00;30.30;36.20
54202;DHT22;40108;53.152;5.844;2022-08-25T16:46:26;30.30;37.20
54202;DHT22;40108;53.152;5.844;2022-08-25T16:48:52;30.30;36.30
54202;DHT22;40108;53.152;5.844;2022-08-25T16:51:20;30.30;36.70
54202;DHT22;40108;53.152;5.844;2022-08-25T16:53:47;30.20;37.30
54202;DHT22;40108;53.152;5.844;2022-08-25T16:56:33;30.20;38.20
54202;DHT22;40108;53.152;5.844;2022-08-25T16:59:00;30.10;37.00
54202;DHT22;40108;53.152;5.844;2022-08-25T17:01:28;30.10;38.00
54202;DHT22;40108;53.152;5.844;2022-08-25T17:03:56;30.00;38.50
54202;DHT22;40108;53.152;5.844;2022-08-25T17:06:24;30.00;38.70
54202;DHT22;40108;53.152;5.844;2022-08-25T17:08:50;30.00;38.80
54202;DHT22;40108;53.152;5.844;2022-08-25T17:11:23;30.00;39.10
54202;DHT22;40108;53.152;5.844;2022-08-25T17:13:53;29.80;39.70
54202;DHT22;40108;53.152;5.844;2022-08-25T17:16:22;29.80;40.00
54202;DHT22;40108;53.152;5.844;2022-08-25T17:18:53;29.80;39.80
54202;DHT22;40108;53.152;5.844;2022-08-25T17:21:20;29.70;40.70
54202;DHT22;40108;53.152;5.844;2022-08-25T17:23:46;29.60;40.50
54202;DHT22;40108;53.152;5.844;2022-08-25T17:26:15;29.60;41.00
54202;DHT22;40108;53.152;5.844;2022-08-25T17:28:41;29.50;41.10
54202;DHT22;40108;53.152;5.844;2022-08-25T17:31:09;29.50;41.50
54202;DHT22;40108;53.152;5.844;2022-08-25T17:33:35;29.50;41.50